Time;durP1;ratioP1;P1;durP2;ratioP2;P2;SDS_P1;SDS_P2;PMS_P1;PMS_P2;Temp;Humidity;BMP_temperature;BMP_pressure;BME280_temperature;BME280_humidity;BME280_pressure;Samples;Min_cycle;Max_cycle;Signal;HPM_P1;HPM_P2
2023/06/01 00:02:22;;;;;;;5.40;3.73;;;14.90;99.90;;;;;;5069866;28;20268;-41
2023/06/01 00:04:49;;;;;;;4.87;3.80;;;14.80;99.90;;;;;;5032042;28;20285;-40
2023/06/01 00:07:16;;;;;;;6.13;3.80;;;14.80;99.90;;;;;;5029278;28;20194;-39
2023/06/01 00:09:42;;;;;;;5.40;4.13;;;14.70;99.90;;;;;;5048268;28;20300;-40
2023/06/01 00:12:08;;;;;;;6.70;3.80;;;14.70;99.90;;;;;;5032893;28;20242;-40
2023/06/01 00:14:34;;;;;;;4.47;3.87;;;14.60;99.90;;;;;;5049435;28;20232;-40
2023/06/01 00:17:00;;;;;;;5.83;3.80;;;14.50;99.90;;;;;;5033130;28;20182;-37
2023/06/01 00:19:26;;;;;;;8.37;3.97;;;14.40;99.90;;;;;;5033123;28;20272;-40
2023/06/01 00:21:56;;;;;;;5.80;4.10;;;14.50;99.90;;;;;;5042988;28;20209;-35
2023/06/01 00:24:23;;;;;;;9.00;3.63;;;14.40;99.90;;;;;;5052702;28;20205;-38
2023/06/01 00:26:48;;;;;;;7.77;4.13;;;14.40;99.90;;;;;;5069621;28;20183;-38
2023/06/01 00:29:14;;;;;;;5.87;3.97;;;14.30;99.90;;;;;;5069559;28;20184;-37
2023/06/01 00:31:40;;;;;;;6.07;4.13;;;14.30;99.90;;;;;;5062232;28;20270;-40
2023/06/01 00:34:07;;;;;;;6.03;3.90;;;14.30;99.90;;;;;;5033043;28;20331;-39
2023/06/01 00:36:33;;;;;;;6.90;4.00;;;14.20;99.90;;;;;;5023572;28;20230;-37
2023/06/01 00:39:02;;;;;;;5.87;3.67;;;14.20;99.90;;;;;;5029966;28;20208;-40
2023/06/01 00:41:31;;;;;;;8.90;3.90;;;14.10;99.90;;;;;;5013466;28;20222;-37
2023/06/01 00:43:57;;;;;;;4.53;3.77;;;14.10;99.90;;;;;;5043004;28;20200;-40
2023/06/01 00:46:23;;;;;;;8.07;4.47;;;14.00;99.90;;;;;;5049416;28;20181;-34
2023/06/01 00:48:50;;;;;;;8.10;4.30;;;14.00;99.90;;;;;;5051185;28;20211;-39
2023/06/01 00:51:16;;;;;;;7.03;4.60;;;13.90;99.90;;;;;;5049460;28;20188;-40
2023/06/01 00:53:42;;;;;;;6.97;4.10;;;13.90;99.90;;;;;;5052532;28;20240;-37
2023/06/01 00:56:13;;;;;;;6.57;3.83;;;13.90;99.90;;;;;;5055822;28;20188;-40
2023/06/01 00:58:39;;;;;;;5.50;4.03;;;13.80;99.90;;;;;;5073399;28;20176;-40
2023/06/01 01:01:07;;;;;;;4.47;3.73;;;13.80;99.90;;;;;;5053619;28;20180;-41
2023/06/01 01:03:34;;;;;;;6.63;4.00;;;13.80;99.90;;;;;;5052765;28;20213;-39
2023/06/01 01:06:14;;;;;;;5.20;4.33;;;13.80;99.90;;;;;;5053253;28;20189;-38
2023/06/01 01:09:07;;;;;;;6.00;4.00;;;13.70;99.90;;;;;;5044916;28;20189;-37
2023/06/01 01:11:35;;;;;;;4.93;3.80;;;13.60;99.90;;;;;;5032642;28;20271;-41
2023/06/01 01:14:19;;;;;;;4.17;3.67;;;13.60;99.90;;;;;;5032925;28;20210;-39
2023/06/01 01:16:53;;;;;;;6.73;4.17;;;13.60;99.90;;;;;;5032933;28;20242;-40
2023/06/01 01:19:27;;;;;;;6.03;3.93;;;13.60;99.90;;;;;;5040486;28;20250;-39
2023/06/01 01:22:07;;;;;;;6.53;4.10;;;13.50;99.90;;;;;;5044151;28;20237;-38
2023/06/01 01:24:43;;;;;;;6.73;4.00;;;13.50;99.90;;;;;;5056032;28;20206;-40
2023/06/01 01:27:38;;;;;;;8.70;4.57;;;13.60;99.90;;;;;;5040336;28;20192;-38
2023/06/01 01:30:07;;;;;;;8.13;4.57;;;13.50;99.90;;;;;;5036358;28;20252;-37
2023/06/01 01:32:35;;;;;;;8.00;4.37;;;13.50;99.90;;;;;;5036120;28;20192;-40
2023/06/01 01:35:04;;;;;;;6.60;4.53;;;13.40;99.90;;;;;;5021322;28;20301;-38
2023/06/01 01:37:29;;;;;;;7.57;4.40;;;13.30;99.90;;;;;;5032652;28;20201;-38
2023/06/01 01:39:56;;;;;;;6.30;4.40;;;13.30;99.90;;;;;;5032945;28;20219;-39
2023/06/01 01:42:21;;;;;;;7.00;4.80;;;13.20;99.90;;;;;;5032375;28;20218;-39
2023/06/01 01:44:47;;;;;;;6.20;4.40;;;13.20;99.90;;;;;;5032243;28;20208;-38
2023/06/01 01:47:31;;;;;;;6.40;4.10;;;13.20;99.90;;;;;;5032481;28;20178;-40
2023/06/01 01:50:01;;;;;;;7.20;4.73;;;13.10;99.90;;;;;;5032629;28;20186;-38
2023/06/01 01:52:39;;;;;;;6.70;4.30;;;13.20;99.90;;;;;;5051740;28;20278;-40
2023/06/01 01:55:07;;;;;;;5.47;4.30;;;13.20;99.90;;;;;;5048915;28;20204;-40
2023/06/01 01:57:35;;;;;;;7.17;4.10;;;13.20;99.90;;;;;;5056117;28;20273;-38
2023/06/01 02:00:04;;;;;;;5.53;4.37;;;13.20;99.90;;;;;;5073553;28;20629;-38
2023/06/01 02:02:39;;;;;;;6.20;4.50;;;13.10;99.90;;;;;;5072636;28;20179;-40
2023/06/01 02:05:05;;;;;;;6.07;4.23;;;13.00;99.90;;;;;;5054597;28;20204;-39
2023/06/01 02:07:34;;;;;;;6.50;4.13;;;13.00;99.90;;;;;;5054732;28;20189;-37
2023/06/01 02:10:02;;;;;;;8.33;4.67;;;12.90;99.90;;;;;;5051155;28;20245;-38
2023/06/01 02:12:29;;;;;;;8.90;4.20;;;12.90;99.90;;;;;;5051755;28;20194;-40
2023/06/01 02:14:55;;;;;;;5.10;4.23;;;12.80;99.90;;;;;;5051620;28;20210;-38
2023/06/01 02:17:21;;;;;;;6.40;4.37;;;12.80;99.90;;;;;;5018493;28;20186;-40
2023/06/01 02:19:47;;;;;;;6.23;4.07;;;12.80;99.90;;;;;;5032064;28;20188;-38
2023/06/01 02:22:13;;;;;;;6.70;4.10;;;12.80;99.90;;;;;;5034898;28;20176;-38
2023/06/01 02:24:39;;;;;;;5.30;4.17;;;12.80;99.90;;;;;;5051499;28;20200;-38
2023/06/01 02:27:05;;;;;;;4.80;4.00;;;12.80;99.90;;;;;;5035296;28;20295;-40
2023/06/01 02:29:33;;;;;;;4.73;3.90;;;12.80;99.90;;;;;;5035023;28;20182;-40
2023/06/01 02:31:58;;;;;;;4.80;3.90;;;12.80;99.90;;;;;;5051285;28;20178;-40
2023/06/01 02:34:25;;;;;;;6.50;4.60;;;12.80;99.90;;;;;;5033433;28;20212;-39
2023/06/01 02:36:50;;;;;;;5.33;4.20;;;12.80;99.90;;;;;;5051435;28;20186;-40
2023/06/01 02:39:17;;;;;;;6.33;3.80;;;12.80;99.90;;;;;;5035208;28;20201;-37
2023/06/01 02:41:44;;;;;;;6.33;3.60;;;12.80;99.90;;;;;;5034977;28;20178;-38
2023/06/01 02:44:10;;;;;;;5.70;3.93;;;12.90;99.90;;;;;;5051038;28;20224;-41
2023/06/01 02:46:35;;;;;;;4.70;4.00;;;12.90;99.90;;;;;;5051369;28;20224;-38
2023/06/01 02:49:01;;;;;;;6.97;4.17;;;12.90;99.90;;;;;;5051382;28;20228;-38
2023/06/01 02:51:27;;;;;;;5.53;3.90;;;12.80;99.90;;;;;;5037468;28;20189;-38
2023/06/01 02:54:04;;;;;;;4.23;3.77;;;12.80;99.90;;;;;;5055612;28;20217;-40
2023/06/01 02:56:30;;;;;;;6.37;4.20;;;12.80;99.90;;;;;;5054275;28;20181;-38
2023/06/01 02:59:08;;;;;;;6.80;4.00;;;12.80;99.90;;;;;;5070908;28;20205;-40
2023/06/01 03:01:39;;;;;;;5.53;3.93;;;12.70;99.90;;;;;;5071060;28;20280;-41
2023/06/01 03:04:07;;;;;;;8.27;4.57;;;12.60;99.90;;;;;;5070814;28;20243;-40
2023/06/01 03:06:37;;;;;;;6.87;4.40;;;12.60;99.90;;;;;;5042149;28;20256;-38
2023/06/01 03:09:18;;;;;;;6.30;4.10;;;12.60;99.90;;;;;;5052348;28;20187;-35
2023/06/01 03:12:10;;;;;;;5.90;3.77;;;12.50;99.90;;;;;;5039085;28;20191;-38
2023/06/01 03:14:37;;;;;;;5.03;4.27;;;12.30;99.90;;;;;;5050552;28;20213;-39
2023/06/01 03:17:02;;;;;;;6.83;3.93;;;12.30;99.90;;;;;;5033604;28;20180;-37
2023/06/01 03:19:28;;;;;;;6.57;4.37;;;12.30;99.90;;;;;;5018539;28;20177;-33
2023/06/01 03:21:56;;;;;;;6.73;4.20;;;12.30;99.90;;;;;;5030871;28;20177;-38
2023/06/01 03:24:25;;;;;;;6.60;4.23;;;12.30;99.90;;;;;;5049298;28;20247;-39
2023/06/01 03:26:52;;;;;;;5.53;4.00;;;12.20;99.90;;;;;;5050981;28;20221;-37
2023/06/01 03:29:18;;;;;;;4.97;3.63;;;12.10;99.90;;;;;;5033890;28;20204;-37
2023/06/01 03:31:44;;;;;;;7.83;4.77;;;12.00;99.90;;;;;;5050553;28;20179;-40
2023/06/01 03:34:10;;;;;;;7.37;4.70;;;11.90;99.90;;;;;;5033836;28;20241;-38
2023/06/01 03:36:36;;;;;;;6.00;4.60;;;11.80;99.90;;;;;;5051820;28;20176;-39
2023/06/01 03:39:07;;;;;;;6.43;4.60;;;11.80;99.90;;;;;;5033951;28;20178;-37
2023/06/01 03:41:35;;;;;;;6.80;4.20;;;11.80;99.90;;;;;;5050733;28;20230;-37
2023/06/01 03:44:02;;;;;;;7.50;4.57;;;11.80;99.90;;;;;;5050414;28;20271;-36
2023/06/01 03:46:28;;;;;;;6.47;4.33;;;11.80;99.90;;;;;;5026605;28;20267;-35
2023/06/01 03:48:54;;;;;;;5.20;4.40;;;11.80;99.90;;;;;;5014049;28;20269;-36
2023/06/01 03:51:19;;;;;;;6.10;3.90;;;11.80;99.90;;;;;;5014255;28;20185;-37
2023/06/01 03:53:45;;;;;;;5.50;4.00;;;11.80;99.90;;;;;;5035182;28;20263;-35
2023/06/01 03:56:11;;;;;;;5.97;4.30;;;11.80;99.90;;;;;;5033545;28;20178;-35
2023/06/01 03:58:41;;;;;;;4.40;4.00;;;11.90;99.90;;;;;;5049900;28;20247;-40
2023/06/01 04:01:07;;;;;;;5.67;4.30;;;11.90;99.90;;;;;;5050126;28;20173;-38
2023/06/01 04:03:33;;;;;;;6.27;3.90;;;11.90;99.90;;;;;;5050405;28;20309;-35
2023/06/01 04:06:01;;;;;;;5.67;4.07;;;11.90;99.90;;;;;;5050053;28;20261;-36
2023/06/01 04:08:29;;;;;;;8.43;4.40;;;12.00;99.90;;;;;;5042030;28;20227;-42
2023/06/01 04:10:55;;;;;;;6.97;4.47;;;12.00;99.90;;;;;;5029697;28;20195;-42
2023/06/01 04:13:21;;;;;;;5.63;4.07;;;12.00;99.90;;;;;;5029819;28;20234;-42
2023/06/01 04:15:47;;;;;;;7.20;4.20;;;12.00;99.90;;;;;;5030619;28;20179;-40
2023/06/01 04:18:17;;;;;;;5.17;4.50;;;12.10;99.90;;;;;;5029955;28;20185;-42
2023/06/01 04:20:54;;;;;;;7.50;4.63;;;12.10;99.90;;;;;;5033986;28;20200;-42
2023/06/01 04:23:22;;;;;;;5.97;4.40;;;12.20;99.90;;;;;;5056096;28;20298;-41
2023/06/01 04:25:50;;;;;;;8.77;5.00;;;12.30;99.90;;;;;;5032827;28;20185;-43
2023/06/01 04:28:17;;;;;;;7.57;4.30;;;12.40;99.90;;;;;;5049573;28;20185;-42
2023/06/01 04:30:51;;;;;;;8.90;4.20;;;12.40;99.90;;;;;;5033040;28;20178;-41
2023/06/01 04:33:17;;;;;;;6.77;4.50;;;12.40;99.90;;;;;;5032921;28;20235;-43
2023/06/01 04:35:44;;;;;;;5.87;3.90;;;12.50;99.90;;;;;;5032678;28;20174;-40
2023/06/01 04:38:11;;;;;;;5.73;4.13;;;12.50;99.90;;;;;;5049409;28;20192;-42
2023/06/01 04:40:37;;;;;;;8.57;4.43;;;12.50;99.90;;;;;;5049666;28;20174;-42
2023/06/01 04:43:04;;;;;;;8.57;4.50;;;12.50;99.90;;;;;;5047302;28;20284;-40
2023/06/01 04:45:31;;;;;;;6.10;4.57;;;12.60;99.90;;;;;;5029757;28;20182;-42
2023/06/01 04:47:57;;;;;;;6.40;4.73;;;12.50;99.90;;;;;;5039978;28;20179;-42
2023/06/01 04:50:38;;;;;;;6.20;4.17;;;12.60;99.90;;;;;;5029263;28;20181;-40
2023/06/01 04:53:04;;;;;;;6.37;4.70;;;12.60;99.90;;;;;;5058709;28;20196;-42
2023/06/01 04:55:30;;;;;;;6.17;4.57;;;12.70;99.90;;;;;;5058417;28;20266;-42
2023/06/01 04:57:57;;;;;;;5.97;4.83;;;12.70;99.90;;;;;;5050601;28;20267;-42
2023/06/01 05:00:22;;;;;;;5.80;3.80;;;12.70;99.90;;;;;;5032730;28;20209;-42
2023/06/01 05:02:49;;;;;;;6.70;4.80;;;12.80;99.90;;;;;;5029501;28;20179;-42
2023/06/01 05:05:16;;;;;;;5.97;4.60;;;12.90;99.90;;;;;;5028853;28;20202;-42
2023/06/01 05:07:43;;;;;;;7.83;4.73;;;12.90;99.90;;;;;;5029125;28;20179;-40
2023/06/01 05:10:11;;;;;;;8.30;5.20;;;13.00;99.90;;;;;;5014238;28;20189;-42
2023/06/01 05:12:45;;;;;;;7.03;5.30;;;12.90;99.90;;;;;;5032974;28;20185;-42
2023/06/01 05:15:12;;;;;;;8.27;5.20;;;12.90;99.90;;;;;;5048933;28;20202;-41
2023/06/01 05:17:39;;;;;;;7.47;4.87;;;12.90;99.90;;;;;;5045751;28;20646;-43
2023/06/01 05:20:12;;;;;;;6.67;4.80;;;13.00;99.90;;;;;;5035212;28;20178;-43
2023/06/01 05:22:40;;;;;;;6.63;5.20;;;13.10;99.90;;;;;;5021435;28;20210;-43
2023/06/01 05:25:08;;;;;;;9.37;4.97;;;13.10;99.90;;;;;;5032343;28;20209;-42
2023/06/01 05:27:35;;;;;;;6.10;5.10;;;13.10;99.90;;;;;;5027513;28;20227;-41
2023/06/01 05:30:02;;;;;;;8.70;4.83;;;13.20;99.90;;;;;;5027938;28;20234;-42
2023/06/01 05:32:34;;;;;;;7.20;4.53;;;13.20;99.90;;;;;;5030273;28;20182;-43
2023/06/01 05:35:07;;;;;;;6.80;5.00;;;13.40;99.90;;;;;;5028129;28;20211;-40
2023/06/01 05:37:35;;;;;;;7.43;5.30;;;13.50;99.90;;;;;;5029215;28;20253;-39
2023/06/01 05:40:03;;;;;;;6.33;4.70;;;13.70;99.90;;;;;;5024215;28;20200;-42
2023/06/01 05:42:29;;;;;;;5.70;5.10;;;13.80;99.90;;;;;;5028612;28;20174;-42
2023/06/01 05:44:58;;;;;;;8.43;5.43;;;13.90;99.90;;;;;;5030367;28;20220;-43
2023/06/01 05:47:24;;;;;;;6.43;4.70;;;14.10;99.90;;;;;;5037121;28;20286;-42
2023/06/01 05:49:50;;;;;;;8.77;5.20;;;14.20;99.90;;;;;;5027472;28;20197;-42
2023/06/01 05:52:17;;;;;;;6.60;4.83;;;14.40;99.90;;;;;;5026104;28;20182;-41
2023/06/01 05:54:43;;;;;;;8.07;5.33;;;14.50;99.90;;;;;;5038841;28;20212;-42
2023/06/01 05:57:10;;;;;;;7.53;4.53;;;14.60;99.90;;;;;;5031817;28;20178;-43
2023/06/01 05:59:37;;;;;;;7.43;4.50;;;14.70;99.90;;;;;;5043752;28;20245;-42
2023/06/01 06:02:03;;;;;;;9.33;4.47;;;14.90;99.90;;;;;;5029447;28;20233;-43
2023/06/01 06:04:30;;;;;;;4.77;4.37;;;15.10;99.90;;;;;;5044538;28;20284;-42
2023/06/01 06:06:56;;;;;;;7.83;5.03;;;15.20;99.90;;;;;;5031896;28;20177;-42
2023/06/01 06:09:23;;;;;;;6.90;4.93;;;15.40;99.90;;;;;;5053361;28;20178;-43
2023/06/01 06:11:49;;;;;;;8.50;4.73;;;15.60;99.90;;;;;;5052013;28;20258;-42
2023/06/01 06:14:15;;;;;;;5.87;4.80;;;15.80;99.90;;;;;;5034823;28;20695;-43
2023/06/01 06:16:42;;;;;;;6.40;4.73;;;15.90;99.90;;;;;;5051715;28;20174;-42
2023/06/01 06:19:08;;;;;;;6.00;4.43;;;16.10;99.90;;;;;;5051846;28;20304;-42
2023/06/01 06:21:35;;;;;;;5.50;4.80;;;16.30;99.90;;;;;;5054099;28;20211;-43
2023/06/01 06:24:00;;;;;;;8.63;4.10;;;16.50;99.90;;;;;;5072863;28;20213;-42
2023/06/01 06:26:27;;;;;;;10.87;4.90;;;16.70;99.90;;;;;;5054874;28;20181;-40
2023/06/01 06:28:53;;;;;;;8.70;4.90;;;16.90;99.90;;;;;;5054814;28;20181;-41
2023/06/01 06:31:19;;;;;;;8.80;4.50;;;16.90;99.90;;;;;;5073187;28;20177;-40
2023/06/01 06:33:45;;;;;;;6.50;5.10;;;17.00;99.90;;;;;;5071373;28;20227;-42
2023/06/01 06:36:11;;;;;;;6.30;4.67;;;17.10;99.90;;;;;;5054818;28;20185;-41
2023/06/01 06:38:37;;;;;;;8.33;4.57;;;17.20;99.90;;;;;;5045655;28;20201;-43
2023/06/01 06:41:03;;;;;;;7.10;4.60;;;17.40;99.90;;;;;;5051371;28;20185;-43
2023/06/01 06:43:29;;;;;;;6.00;4.15;;;17.60;99.90;;;;;;5034547;28;20204;-43
2023/06/01 06:45:55;;;;;;;7.38;5.00;;;17.80;99.90;;;;;;5034661;28;20204;-43
2023/06/01 06:48:20;;;;;;;6.30;4.50;;;17.90;99.90;;;;;;5051374;28;20185;-43
2023/06/01 06:50:47;;;;;;;7.95;5.28;;;18.00;99.90;;;;;;5050895;28;20208;-43
2023/06/01 06:53:13;;;;;;;5.32;4.22;;;18.00;99.90;;;;;;5066993;28;20203;-43
2023/06/01 06:55:38;;;;;;;6.78;4.10;;;18.00;99.90;;;;;;5047664;28;20236;-42
2023/06/01 06:58:04;;;;;;;6.88;4.75;;;18.20;99.90;;;;;;5014833;28;20201;-43
2023/06/01 07:00:30;;;;;;;6.68;4.50;;;18.30;99.90;;;;;;5031079;28;20179;-43
2023/06/01 07:02:58;;;;;;;7.93;4.28;;;18.50;99.90;;;;;;5031153;28;20183;-43
2023/06/01 07:05:24;;;;;;;7.07;4.40;;;18.70;99.90;;;;;;5032130;28;20309;-43
2023/06/01 07:07:50;;;;;;;5.88;3.80;;;18.90;99.90;;;;;;5017428;28;20192;-43
2023/06/01 07:10:16;;;;;;;5.82;3.83;;;19.10;99.90;;;;;;5050899;28;20237;-42
2023/06/01 07:12:42;;;;;;;5.47;3.90;;;19.30;99.90;;;;;;5051120;28;20257;-43
2023/06/01 07:15:08;;;;;;;6.28;3.58;;;19.40;99.90;;;;;;5033694;28;20209;-36
2023/06/01 07:17:34;;;;;;;5.13;3.72;;;19.60;99.90;;;;;;5050133;28;20273;-43
2023/06/01 07:20:04;;;;;;;5.88;3.95;;;19.70;99.90;;;;;;5050993;28;20293;-43
2023/06/01 07:22:30;;;;;;;5.32;3.33;;;19.80;99.90;;;;;;5060723;28;20226;-43
2023/06/01 07:24:55;;;;;;;5.68;3.88;;;20.10;99.90;;;;;;5053895;28;20201;-43
2023/06/01 07:27:22;;;;;;;6.68;4.13;;;20.30;99.90;;;;;;5069943;28;20185;-43
2023/06/01 07:29:54;;;;;;;6.28;3.80;;;20.30;99.90;;;;;;5053925;28;20184;-43
2023/06/01 07:32:20;;;;;;;5.78;3.70;;;20.50;99.90;;;;;;5052870;28;20189;-42
2023/06/01 07:34:46;;;;;;;6.70;3.70;;;20.70;99.90;;;;;;5070069;28;20208;-43
2023/06/01 07:37:12;;;;;;;5.93;3.60;;;20.80;99.90;;;;;;5070664;28;20169;-43
2023/06/01 07:39:38;;;;;;;4.88;3.60;;;21.00;99.90;;;;;;5036149;28;20196;-43
2023/06/01 07:42:04;;;;;;;4.95;3.55;;;21.10;99.90;;;;;;5033662;28;20174;-43
2023/06/01 07:44:30;;;;;;;4.93;3.30;;;21.30;99.90;;;;;;5033533;28;20290;-43
2023/06/01 07:46:56;;;;;;;7.13;4.07;;;21.40;99.90;;;;;;5033622;28;20223;-43
2023/06/01 07:49:21;;;;;;;7.03;3.55;;;21.50;99.90;;;;;;5033855;28;20182;-41
2023/06/01 07:51:48;;;;;;;4.68;3.85;;;21.60;99.90;;;;;;5037671;28;20184;-43
2023/06/01 07:54:14;;;;;;;6.72;4.00;;;21.60;99.90;;;;;;5069691;28;20223;-43
2023/06/01 07:56:39;;;;;;;5.22;3.65;;;21.70;99.90;;;;;;5052390;28;20189;-42
2023/06/01 07:59:05;;;;;;;5.72;3.90;;;21.80;99.90;;;;;;5070040;28;20181;-43
2023/06/01 08:01:32;;;;;;;6.05;3.75;;;21.80;99.90;;;;;;5069311;28;20182;-42
2023/06/01 08:03:58;;;;;;;5.60;3.60;;;21.90;99.90;;;;;;5070839;28;20305;-43
2023/06/01 08:06:24;;;;;;;5.82;3.80;;;22.00;99.90;;;;;;5069671;28;20264;-42
2023/06/01 08:08:52;;;;;;;4.93;3.53;;;22.20;99.90;;;;;;5042120;28;20186;-43
2023/06/01 08:11:17;;;;;;;4.35;3.65;;;22.40;99.90;;;;;;5049803;28;20207;-41
2023/06/01 08:13:46;;;;;;;5.20;3.55;;;22.60;99.90;;;;;;5049557;28;20218;-44
2023/06/01 08:16:13;;;;;;;6.38;3.80;;;22.70;99.90;;;;;;5049594;28;20261;-43
2023/06/01 08:18:39;;;;;;;5.90;4.05;;;22.90;99.90;;;;;;5049949;28;20193;-43
2023/06/01 08:21:05;;;;;;;4.97;3.88;;;22.90;99.90;;;;;;5050643;28;20174;-43
2023/06/01 08:23:31;;;;;;;4.88;3.65;;;22.70;99.90;;;;;;5067649;28;20220;-43
2023/06/01 08:25:56;;;;;;;5.68;4.15;;;22.90;99.90;;;;;;5069621;28;20181;-38
2023/06/01 08:28:22;;;;;;;4.88;3.70;;;23.00;99.90;;;;;;5053058;28;20208;-43
2023/06/01 08:30:48;;;;;;;5.60;4.00;;;23.00;99.90;;;;;;5052528;28;20265;-43
2023/06/01 08:33:15;;;;;;;6.63;4.00;;;23.10;99.90;;;;;;5069738;28;20189;-43
2023/06/01 08:35:41;;;;;;;7.43;3.63;;;23.30;99.90;;;;;;5052317;28;20186;-42
2023/06/01 08:38:06;;;;;;;7.07;4.28;;;23.40;99.90;;;;;;5064388;28;20247;-43
2023/06/01 08:40:32;;;;;;;6.43;3.95;;;23.60;99.90;;;;;;5032961;28;20178;-43
2023/06/01 08:43:20;;;;;;;5.35;4.60;;;23.50;99.90;;;;;;5032860;28;20182;-43
2023/06/01 08:45:49;;;;;;;5.18;3.88;;;23.60;99.90;;;;;;5032576;28;20181;-42
2023/06/01 08:48:17;;;;;;;5.63;3.72;;;23.40;99.90;;;;;;5049360;28;20170;-43
2023/06/01 08:50:49;;;;;;;6.88;4.18;;;23.60;99.90;;;;;;5050710;28;20174;-43
2023/06/01 08:53:21;;;;;;;7.60;4.15;;;23.60;99.90;;;;;;5048937;28;20188;-43
2023/06/01 08:55:52;;;;;;;6.63;4.15;;;23.70;99.90;;;;;;5052279;28;20276;-43
2023/06/01 08:58:18;;;;;;;4.90;4.15;;;23.80;99.90;;;;;;5069308;28;20181;-43
2023/06/01 09:00:46;;;;;;;7.53;4.20;;;23.90;99.90;;;;;;5052488;28;20173;-43
2023/06/01 09:03:13;;;;;;;7.00;4.53;;;23.80;99.90;;;;;;5069294;28;20187;-43
2023/06/01 09:05:39;;;;;;;7.00;4.05;;;23.80;99.90;;;;;;5070903;28;20213;-43
2023/06/01 09:08:06;;;;;;;8.68;3.95;;;23.90;99.90;;;;;;5065562;28;20205;-43
2023/06/01 09:10:31;;;;;;;5.80;4.18;;;24.00;99.90;;;;;;5049103;28;20185;-43
2023/06/01 09:12:57;;;;;;;7.00;3.88;;;24.20;99.90;;;;;;5032775;28;20241;-43
2023/06/01 09:15:25;;;;;;;6.80;4.13;;;24.40;99.90;;;;;;5049294;28;20213;-43
2023/06/01 09:17:52;;;;;;;7.13;4.20;;;24.60;99.90;;;;;;5052935;28;20236;-43
2023/06/01 09:20:26;;;;;;;5.65;4.28;;;24.70;99.90;;;;;;5052982;28;20174;-43
2023/06/01 09:22:53;;;;;;;6.88;4.35;;;24.80;99.90;;;;;;5048893;28;20182;-43
2023/06/01 09:25:26;;;;;;;5.95;4.30;;;24.90;99.90;;;;;;5056015;28;20255;-43
2023/06/01 09:27:53;;;;;;;6.80;4.10;;;25.10;99.90;;;;;;5073319;28;20204;-43
2023/06/01 09:30:23;;;;;;;6.95;4.03;;;25.30;99.90;;;;;;5074061;28;20181;-43
2023/06/01 09:32:53;;;;;;;6.00;4.90;;;25.60;99.90;;;;;;5056102;28;20197;-43
2023/06/01 09:35:48;;;;;;;5.85;4.20;;;25.90;99.90;;;;;;5055759;28;20213;-43
2023/06/01 09:38:24;;;;;;;5.47;4.22;;;25.90;99.90;;;;;;5066704;28;20189;-43
2023/06/01 09:41:00;;;;;;;6.95;4.30;;;26.00;99.90;;;;;;5053953;28;20185;-43
2023/06/01 09:43:27;;;;;;;8.13;4.72;;;25.90;99.90;;;;;;5052472;28;20212;-43
2023/06/01 09:46:04;;;;;;;5.50;4.53;;;26.20;99.90;;;;;;5052238;28;20191;-43
2023/06/01 09:48:30;;;;;;;5.93;4.35;;;26.50;99.90;;;;;;5054050;28;20178;-43
2023/06/01 09:50:56;;;;;;;5.95;4.30;;;26.60;99.90;;;;;;5035785;28;20185;-43
2023/06/01 09:53:22;;;;;;;8.00;4.55;;;26.90;99.90;;;;;;5052681;28;20213;-43
2023/06/01 09:55:58;;;;;;;7.63;4.50;;;27.00;99.90;;;;;;5054733;28;20189;-43
2023/06/01 09:58:24;;;;;;;6.13;4.93;;;27.20;99.90;;;;;;5072554;28;20180;-43
2023/06/01 10:00:51;;;;;;;6.20;4.40;;;27.40;99.90;;;;;;5055191;28;20299;-43
2023/06/01 10:03:18;;;;;;;6.75;4.78;;;27.50;99.90;;;;;;5072088;28;20177;-43
2023/06/01 10:05:46;;;;;;;6.95;4.82;;;27.50;99.90;;;;;;5071890;28;20201;-43
2023/06/01 10:08:13;;;;;;;7.60;4.75;;;27.20;99.90;;;;;;5066115;28;20194;-43
2023/06/01 10:10:41;;;;;;;5.20;4.70;;;27.30;99.90;;;;;;5052223;28;20177;-43
2023/06/01 10:13:07;;;;;;;7.65;5.10;;;27.50;99.90;;;;;;5052135;28;20268;-43
2023/06/01 10:15:33;;;;;;;5.90;4.57;;;27.50;99.90;;;;;;5034848;28;20316;-43
2023/06/01 10:18:06;;;;;;;7.75;5.15;;;27.60;99.90;;;;;;5035359;28;20209;-43
2023/06/01 10:20:37;;;;;;;6.30;4.78;;;27.70;99.90;;;;;;5051918;28;20174;-43
2023/06/01 10:23:04;;;;;;;11.15;5.78;;;27.60;99.90;;;;;;5049895;28;20166;-43
2023/06/01 10:25:43;;;;;;;6.15;5.00;;;27.80;99.90;;;;;;5054998;28;20264;-43
2023/06/01 10:28:14;;;;;;;7.43;5.07;;;27.90;99.90;;;;;;5071602;28;20196;-43
2023/06/01 10:30:40;;;;;;;7.65;4.97;;;27.80;97.90;;;;;;5054860;28;20215;-43
2023/06/01 10:33:06;;;;;;;6.95;5.13;;;27.80;97.80;;;;;;5073199;28;20195;-43
2023/06/01 10:35:41;;;;;;;6.40;4.90;;;28.00;99.60;;;;;;5071662;28;20191;-40
2023/06/01 10:38:07;;;;;;;7.68;4.30;;;28.20;97.30;;;;;;5055158;28;20181;-42
2023/06/01 10:40:39;;;;;;;5.85;5.15;;;28.40;96.10;;;;;;5055074;28;20239;-43
2023/06/01 10:43:08;;;;;;;5.80;5.22;;;28.30;97.20;;;;;;5071658;28;20181;-41
2023/06/01 10:45:33;;;;;;;7.10;4.78;;;28.50;97.10;;;;;;5054782;28;20181;-42
2023/06/01 10:48:00;;;;;;;5.15;4.65;;;28.40;96.10;;;;;;5071507;28;20231;-38
2023/06/01 10:50:26;;;;;;;7.25;5.25;;;28.40;94.20;;;;;;5055044;28;20169;-42
2023/06/01 10:52:54;;;;;;;7.32;4.90;;;28.50;95.10;;;;;;5048723;28;20186;-42
2023/06/01 10:55:25;;;;;;;6.07;5.00;;;28.60;96.70;;;;;;5042503;28;20268;-42
2023/06/01 10:58:11;;;;;;;6.65;4.78;;;28.80;96.10;;;;;;5031675;28;20186;-39
2023/06/01 11:00:40;;;;;;;5.78;4.85;;;29.00;96.50;;;;;;5031008;28;20183;-42
2023/06/01 11:03:06;;;;;;;6.78;4.65;;;29.20;94.80;;;;;;5014824;28;20175;-40
2023/06/01 11:05:50;;;;;;;7.22;5.00;;;29.20;94.20;;;;;;5014771;28;20186;-41
2023/06/01 11:08:29;;;;;;;7.07;5.05;;;29.00;94.50;;;;;;5031193;28;20198;-42
2023/06/01 11:11:03;;;;;;;7.22;5.05;;;29.00;95.90;;;;;;5031188;28;20183;-40
2023/06/01 11:13:37;;;;;;;6.65;4.72;;;29.10;95.20;;;;;;5031529;28;20214;-42
2023/06/01 11:16:21;;;;;;;5.72;4.72;;;29.20;94.50;;;;;;5033257;28;20162;-42
2023/06/01 11:18:58;;;;;;;7.32;5.18;;;29.40;94.30;;;;;;5046450;28;20181;-41
2023/06/01 11:21:40;;;;;;;6.60;4.80;;;29.40;92.50;;;;;;5048373;28;20178;-42
2023/06/01 11:24:11;;;;;;;6.63;4.97;;;29.60;92.40;;;;;;5043751;28;20194;-42
2023/06/01 11:26:45;;;;;;;6.68;4.68;;;29.30;93.00;;;;;;5028015;28;20178;-42
2023/06/01 11:29:20;;;;;;;8.00;4.90;;;29.30;92.30;;;;;;5041585;28;20182;-42
2023/06/01 11:31:55;;;;;;;6.43;4.97;;;29.40;93.30;;;;;;5039706;28;20177;-42
2023/06/01 11:34:30;;;;;;;5.72;4.63;;;29.40;92.90;;;;;;5042082;28;20262;-41
2023/06/01 11:36:58;;;;;;;7.28;4.70;;;29.30;92.20;;;;;;5038878;28;20241;-41
2023/06/01 11:39:28;;;;;;;5.72;4.75;;;28.90;91.60;;;;;;5021942;28;20306;-42
2023/06/01 11:42:06;;;;;;;6.03;4.63;;;29.20;93.20;;;;;;5020706;28;20178;-40
2023/06/01 11:44:40;;;;;;;6.38;4.82;;;29.30;93.50;;;;;;5037946;28;20198;-42
2023/06/01 11:47:07;;;;;;;5.38;4.43;;;29.30;92.30;;;;;;5030591;28;20186;-42
2023/06/01 11:49:48;;;;;;;5.32;4.60;;;29.60;92.70;;;;;;5031815;28;20186;-40
2023/06/01 11:52:18;;;;;;;5.97;4.57;;;29.90;93.00;;;;;;5036859;28;20227;-43
2023/06/01 11:54:45;;;;;;;7.13;4.90;;;29.80;92.20;;;;;;5033417;28;20217;-43
2023/06/01 11:57:11;;;;;;;7.28;5.00;;;29.70;92.30;;;;;;5028709;28;20171;-43
2023/06/01 11:59:42;;;;;;;4.65;4.22;;;29.40;92.00;;;;;;5035713;28;20198;-40
2023/06/01 12:02:24;;;;;;;5.95;4.60;;;29.60;92.70;;;;;;5038680;28;20174;-42
2023/06/01 12:05:08;;;;;;;6.57;4.68;;;29.80;92.10;;;;;;5031354;28;20288;-42
2023/06/01 12:07:54;;;;;;;7.53;4.43;;;29.70;91.60;;;;;;5033174;28;20179;-40
2023/06/01 12:10:21;;;;;;;5.60;4.93;;;29.90;92.00;;;;;;5051500;28;20210;-42
2023/06/01 12:12:47;;;;;;;5.53;4.95;;;30.30;91.30;;;;;;5035492;28;20269;-40
2023/06/01 12:15:18;;;;;;;7.85;4.75;;;29.80;89.90;;;;;;5050280;28;20281;-42
2023/06/01 12:17:55;;;;;;;5.25;4.40;;;30.00;91.90;;;;;;5050253;28;20181;-40
2023/06/01 12:20:37;;;;;;;5.70;4.65;;;30.20;91.30;;;;;;5050168;28;20173;-42
2023/06/01 12:23:16;;;;;;;4.43;4.03;;;29.90;88.80;;;;;;5061115;28;20194;-42
2023/06/01 12:25:56;;;;;;;5.90;5.07;;;30.20;90.30;;;;;;5050011;28;20460;-42
2023/06/01 12:28:24;;;;;;;7.00;4.97;;;30.30;91.30;;;;;;5033569;28;20178;-42
2023/06/01 12:31:15;;;;;;;5.38;4.88;;;30.20;89.00;;;;;;5033246;28;20659;-40
2023/06/01 12:33:44;;;;;;;5.65;4.75;;;30.30;91.10;;;;;;5049948;28;20233;-40
2023/06/01 12:36:12;;;;;;;7.70;4.63;;;30.30;87.40;;;;;;5049754;28;20178;-42
2023/06/01 12:38:49;;;;;;;5.63;4.80;;;30.50;89.40;;;;;;5033453;28;20185;-42
2023/06/01 12:41:17;;;;;;;5.78;4.45;;;30.70;87.30;;;;;;5033179;28;20174;-42
2023/06/01 12:43:48;;;;;;;5.93;4.85;;;30.70;88.90;;;;;;5049691;28;20209;-42
2023/06/01 12:46:27;;;;;;;5.88;4.43;;;30.90;85.20;;;;;;5032954;28;20264;-42
2023/06/01 12:49:10;;;;;;;6.47;5.20;;;31.00;85.70;;;;;;5033010;28;20185;-42
2023/06/01 12:51:36;;;;;;;4.90;4.40;;;31.20;88.40;;;;;;5056295;28;20182;-42
2023/06/01 12:54:02;;;;;;;5.50;4.47;;;31.30;85.20;;;;;;5056462;28;20278;-42
2023/06/01 12:56:28;;;;;;;5.85;4.78;;;31.40;86.60;;;;;;5073567;28;20262;-40
2023/06/01 12:58:54;;;;;;;7.32;5.00;;;31.60;87.30;;;;;;5056816;28;20216;-42